Kaiseimaru — JD2863 — position and weather

sailwx.info

Track history (hours):
 
Tides and Currents Weather Stations Pressure Air Temp Water Temp Dewpoint Dewpoint Depression Visibility Wind Speed Wind Dir Waves Ship Positions

Kaiseimaru

Last reported at 2018-Jan-19 20:58 UTC. Time now 2018-Jan-19 21:19 UTC.
Position N 34°57' E 138°30'.

Length 76 m; draft 5 m.

Type: Cargo ship. MMSI: 431000834.

Date/timePositionNaut miles runAvg speedWind from/ knotsBaromVisibWave heightAir tempDewpointWater temp
2018-Jan-19 20:58N 34°57' E 138°30'0 0.0
2018-Jan-19 20:28N 34°57' E 138°30'0 0.0
2018-Jan-19 19:58N 34°57' E 138°30'0 0.0
2018-Jan-19 19:28N 34°57' E 138°30'0 0.0
2018-Jan-19 18:58N 34°57' E 138°30'0 0.0
2018-Jan-19 18:28N 34°57' E 138°30'0 0.0
2018-Jan-19 17:58N 34°57' E 138°30'3 6.9
2018-Jan-19 17:30N 34°54' E 138°28'611.6
2018-Jan-19 17:00N 34°49' E 138°25'611.7
2018-Jan-19 16:30N 34°44' E 138°23'611.8
2018-Jan-19 16:00N 34°38' E 138°20'7211.7
2018-Jan-19 09:52N 34°39' E 136°52'411.8
2018-Jan-19 09:30N 34°42' E 136°48'612.4
2018-Jan-19 09:00N 34°48' E 136°45'612.3
2018-Jan-19 08:30N 34°53' E 136°42'510.1
2018-Jan-19 08:00N 34°57' E 136°39'0 0.5
2018-Jan-19 07:29N 34°57' E 136°38'0 0.0
2018-Jan-19 06:59N 34°57' E 136°38'0 0.0
2018-Jan-19 06:29N 34°57' E 136°38'0 0.1
2018-Jan-19 05:59N 34°57' E 136°38'0 0.1
2018-Jan-19 05:29N 34°57' E 136°38'0 0.0
2018-Jan-19 04:59N 34°57' E 136°38'0 0.0
2018-Jan-19 04:29N 34°57' E 136°38'0 0.0
2018-Jan-19 03:59N 34°57' E 136°38'0 0.0
2018-Jan-19 03:29N 34°57' E 136°38'0 0.0
2018-Jan-19 02:59N 34°57' E 136°38'0 0.0
2018-Jan-19 02:30N 34°57' E 136°38'3 5.6
2018-Jan-19 02:00N 34°56' E 136°41'611.3
2018-Jan-19 01:30N 34°50' E 136°42'2 3.3
2018-Jan-19 01:00N 34°49' E 136°43'510.9
2018-Jan-19 00:30N 34°45' E 136°48'611.0
2018-Jan-18 23:59N 34°41' E 136°53'610.9
2018-Jan-18 23:28N 34°39' E 136°59'511.3
2018-Jan-18 23:00N 34°41' E 137°05'711.7
2018-Jan-18 22:27N 34°43' E 137°12'  
2018-Jan-12 14:54N 34°47' E 138°17'0 0.0
2018-Jan-12 14:30N 34°47' E 138°17'0 0.0
2018-Jan-12 14:00N 34°47' E 138°17'0 0.0
2018-Jan-12 13:30N 34°47' E 138°17'0 0.0
2018-Jan-12 12:54N 34°47' E 138°17'0 0.0
2018-Jan-12 12:30N 34°47' E 138°17'0 0.0
2018-Jan-12 12:00N 34°47' E 138°17'0 0.0
2018-Jan-12 11:30N 34°47' E 138°17'0 0.0
2018-Jan-12 10:21N 34°47' E 138°17'0 0.0
2018-Jan-12 10:00N 34°47' E 138°17'0 0.0
2018-Jan-12 09:24N 34°47' E 138°17'0 0.0
2018-Jan-12 09:00N 34°47' E 138°17'0 0.0
2018-Jan-12 08:24N 34°47' E 138°17'0 0.0
2018-Jan-12 08:00N 34°47' E 138°17'0 0.0
2018-Jan-12 07:30N 34°47' E 138°17'0 0.0
2018-Jan-12 06:59N 34°47' E 138°17'0 0.0
2018-Jan-12 06:18N 34°47' E 138°17'0 0.0
2018-Jan-12 04:45N 34°47' E 138°17'0 0.0
2018-Jan-12 03:42N 34°47' E 138°17'0 0.0
2018-Jan-11 22:18N 34°47' E 138°17'0 1.5
2018-Jan-11 22:00N 34°47' E 138°18'1 1.6
2018-Jan-11 21:31N 34°46' E 138°19'0 0.0
2018-Jan-11 21:01N 34°46' E 138°19'0 0.0
2018-Jan-11 20:31N 34°46' E 138°19'0 0.0
2018-Jan-11 20:00N 34°46' E 138°19'0 0.0
2018-Jan-11 19:31N 34°46' E 138°19'0 0.0
2018-Jan-11 18:55N 34°46' E 138°19'0 0.0
2018-Jan-11 18:28N 34°46' E 138°19'0 0.0
2018-Jan-11 17:58N 34°46' E 138°19'0 0.1
2018-Jan-11 17:30N 34°46' E 138°19'611.1
2018-Jan-11 17:00N 34°41' E 138°18'611.8
2018-Jan-11 16:30N 34°35' E 138°17'5012.2
2018-Jan-11 12:26N 34°32' E 137°17'2111.9
2018-Jan-11 10:38N 34°39' E 136°52'212.3
2018-Jan-11 10:29N 34°40' E 136°50'612.4
2018-Jan-11 10:00N 34°45' E 136°47'612.7
2018-Jan-11 09:30N 34°51' E 136°44'612.3
2018-Jan-11 09:00N 34°56' E 136°41'2 4.2
2018-Jan-11 08:30N 34°57' E 136°38'0 0.0
2018-Jan-11 08:00N 34°57' E 136°38'0 0.0
2018-Jan-11 07:30N 34°57' E 136°38'0 0.0
2018-Jan-11 07:00N 34°57' E 136°38'0 0.0
2018-Jan-11 06:24N 34°57' E 136°38'0 0.0
2018-Jan-11 06:00N 34°57' E 136°38'0 0.0
2018-Jan-11 05:30N 34°57' E 136°38'0 0.0
2018-Jan-11 05:00N 34°57' E 136°38'0 0.0
2018-Jan-11 04:30N 34°57' E 136°38'0 0.0
2018-Jan-11 04:00N 34°57' E 136°38'1 1.6
2018-Jan-11 03:30N 34°57' E 136°39'4 7.9
2018-Jan-11 03:00N 34°54' E 136°42'0 0.1
2018-Jan-11 02:30N 34°54' E 136°43'0 0.0
2018-Jan-11 01:57N 34°54' E 136°43'0 0.0
2018-Jan-11 01:30N 34°54' E 136°43'0 0.1
2018-Jan-11 01:00N 34°54' E 136°42'0 0.1
2018-Jan-11 00:30N 34°54' E 136°43'0 0.0
2018-Jan-11 00:00N 34°54' E 136°43'0 0.0
2018-Jan-10 23:30N 34°54' E 136°43'0 0.0
2018-Jan-10 22:57N 34°54' E 136°43'0 0.0
2018-Jan-10 22:27N 34°54' E 136°43'0 0.0
2018-Jan-10 22:00N 34°54' E 136°43'0 0.0
2018-Jan-10 21:30N 34°54' E 136°43'0 0.0
2018-Jan-10 20:57N 34°54' E 136°43'0 0.0
2018-Jan-10 20:24N 34°54' E 136°43'0 0.0
2018-Jan-10 20:00N 34°54' E 136°43'0 0.0
2018-Jan-10 19:30N 34°54' E 136°43'0 0.0
2018-Jan-10 19:00N 34°54' E 136°43'0 0.0
2018-Jan-10 18:27N 34°54' E 136°43'0 0.0
2018-Jan-10 17:57N 34°54' E 136°43'0 0.0
2018-Jan-10 17:27N 34°54' E 136°43'0 0.0
2018-Jan-10 17:00N 34°54' E 136°43'0 0.0
2018-Jan-10 16:27N 34°54' E 136°43'0 0.1
2018-Jan-10 16:00N 34°54' E 136°42'0 0.1
2018-Jan-10 15:27N 34°54' E 136°43'0 0.0
2018-Jan-10 14:57N 34°54' E 136°43'0 0.0
2018-Jan-10 14:30N 34°54' E 136°43'0 0.1
2018-Jan-10 13:57N 34°54' E 136°42'0 0.0
2018-Jan-10 13:30N 34°54' E 136°42'0 0.0
2018-Jan-10 13:00N 34°54' E 136°42'0 0.1
2018-Jan-10 12:30N 34°54' E 136°42'511.1
2018-Jan-10 12:01N 34°49' E 136°45'611.7
2018-Jan-10 11:30N 34°44' E 136°49'2010.4
2018-Jan-10 09:33N 34°33' E 137°10'111.7
2018-Jan-10 09:27N 34°33' E 137°11'5210.9
2018-Jan-10 04:42N 34°34' E 138°14'2 9.5
2018-Jan-10 04:29N 34°34' E 138°16'510.5
2018-Jan-10 04:00N 34°39' E 138°18'611.4
2018-Jan-10 03:30N 34°45' E 138°19'611.2
2018-Jan-10 02:59N 34°50' E 138°23'511.0
2018-Jan-10 02:30N 34°54' E 138°27'510.5
2018-Jan-10 02:00N 34°58' E 138°31'4 7.1
2018-Jan-10 01:30N 35°02' E 138°31'1 1.2
2018-Jan-10 01:00N 35°02' E 138°30'0 0.0
2018-Jan-10 00:30N 35°02' E 138°30'0 0.0
2018-Jan-10 00:00N 35°02' E 138°30'0 0.0
2018-Jan-09 23:30N 35°02' E 138°30'0 0.0
2018-Jan-09 23:00N 35°02' E 138°30'0 0.0
2018-Jan-09 22:30N 35°02' E 138°30'0 0.0
2018-Jan-09 22:00N 35°02' E 138°30'0 0.0
2018-Jan-09 21:30N 35°02' E 138°30'0 0.0
2018-Jan-09 21:00N 35°02' E 138°30'  
Track history (hours):
 
Tides and Currents Weather Stations Pressure Air Temp Water Temp Dewpoint Dewpoint Depression Visibility Wind Speed Wind Dir Waves Ship Positions

Kaiseimaru

Last reported at 2018-Jan-19 20:58 UTC. Time now 2018-Jan-19 21:19 UTC.
Position N 34°57' E 138°30'.

Length 76 m; draft 5 m.

Type: Cargo ship. MMSI: 431000834.

Date/timePositionNaut miles runAvg speedWind from/ knotsBaromVisibWave heightAir tempDewpointWater temp
2018-Jan-19 20:58N 34°57' E 138°30'0 0.0
2018-Jan-19 20:28N 34°57' E 138°30'0 0.0
2018-Jan-19 19:58N 34°57' E 138°30'0 0.0
2018-Jan-19 19:28N 34°57' E 138°30'0 0.0
2018-Jan-19 18:58N 34°57' E 138°30'0 0.0
2018-Jan-19 18:28N 34°57' E 138°30'0 0.0
2018-Jan-19 17:58N 34°57' E 138°30'3 6.9
2018-Jan-19 17:30N 34°54' E 138°28'611.6
2018-Jan-19 17:00N 34°49' E 138°25'611.7
2018-Jan-19 16:30N 34°44' E 138°23'611.8
2018-Jan-19 16:00N 34°38' E 138°20'7211.7
2018-Jan-19 09:52N 34°39' E 136°52'411.8
2018-Jan-19 09:30N 34°42' E 136°48'612.4
2018-Jan-19 09:00N 34°48' E 136°45'612.3
2018-Jan-19 08:30N 34°53' E 136°42'510.1
2018-Jan-19 08:00N 34°57' E 136°39'0 0.5
2018-Jan-19 07:29N 34°57' E 136°38'0 0.0
2018-Jan-19 06:59N 34°57' E 136°38'0 0.0
2018-Jan-19 06:29N 34°57' E 136°38'0 0.1
2018-Jan-19 05:59N 34°57' E 136°38'0 0.1
2018-Jan-19 05:29N 34°57' E 136°38'0 0.0
2018-Jan-19 04:59N 34°57' E 136°38'0 0.0
2018-Jan-19 04:29N 34°57' E 136°38'0 0.0
2018-Jan-19 03:59N 34°57' E 136°38'0 0.0
2018-Jan-19 03:29N 34°57' E 136°38'0 0.0
2018-Jan-19 02:59N 34°57' E 136°38'0 0.0
2018-Jan-19 02:30N 34°57' E 136°38'3 5.6
2018-Jan-19 02:00N 34°56' E 136°41'611.3
2018-Jan-19 01:30N 34°50' E 136°42'2 3.3
2018-Jan-19 01:00N 34°49' E 136°43'510.9
2018-Jan-19 00:30N 34°45' E 136°48'611.0
2018-Jan-18 23:59N 34°41' E 136°53'610.9
2018-Jan-18 23:28N 34°39' E 136°59'511.3
2018-Jan-18 23:00N 34°41' E 137°05'711.7
2018-Jan-18 22:27N 34°43' E 137°12'  
2018-Jan-12 14:54N 34°47' E 138°17'0 0.0
2018-Jan-12 14:30N 34°47' E 138°17'0 0.0
2018-Jan-12 14:00N 34°47' E 138°17'0 0.0
2018-Jan-12 13:30N 34°47' E 138°17'0 0.0
2018-Jan-12 12:54N 34°47' E 138°17'0 0.0
2018-Jan-12 12:30N 34°47' E 138°17'0 0.0
2018-Jan-12 12:00N 34°47' E 138°17'0 0.0
2018-Jan-12 11:30N 34°47' E 138°17'0 0.0
2018-Jan-12 10:21N 34°47' E 138°17'0 0.0
2018-Jan-12 10:00N 34°47' E 138°17'0 0.0
2018-Jan-12 09:24N 34°47' E 138°17'0 0.0
2018-Jan-12 09:00N 34°47' E 138°17'0 0.0
2018-Jan-12 08:24N 34°47' E 138°17'0 0.0
2018-Jan-12 08:00N 34°47' E 138°17'0 0.0
2018-Jan-12 07:30N 34°47' E 138°17'0 0.0
2018-Jan-12 06:59N 34°47' E 138°17'0 0.0
2018-Jan-12 06:18N 34°47' E 138°17'0 0.0
2018-Jan-12 04:45N 34°47' E 138°17'0 0.0
2018-Jan-12 03:42N 34°47' E 138°17'0 0.0
2018-Jan-11 22:18N 34°47' E 138°17'0 1.5
2018-Jan-11 22:00N 34°47' E 138°18'1 1.6
2018-Jan-11 21:31N 34°46' E 138°19'0 0.0
2018-Jan-11 21:01N 34°46' E 138°19'0 0.0
2018-Jan-11 20:31N 34°46' E 138°19'0 0.0
2018-Jan-11 20:00N 34°46' E 138°19'0 0.0
2018-Jan-11 19:31N 34°46' E 138°19'0 0.0
2018-Jan-11 18:55N 34°46' E 138°19'0 0.0
2018-Jan-11 18:28N 34°46' E 138°19'0 0.0
2018-Jan-11 17:58N 34°46' E 138°19'0 0.1
2018-Jan-11 17:30N 34°46' E 138°19'611.1
2018-Jan-11 17:00N 34°41' E 138°18'611.8
2018-Jan-11 16:30N 34°35' E 138°17'5012.2
2018-Jan-11 12:26N 34°32' E 137°17'2111.9
2018-Jan-11 10:38N 34°39' E 136°52'212.3
2018-Jan-11 10:29N 34°40' E 136°50'612.4
2018-Jan-11 10:00N 34°45' E 136°47'612.7
2018-Jan-11 09:30N 34°51' E 136°44'612.3
2018-Jan-11 09:00N 34°56' E 136°41'2 4.2
2018-Jan-11 08:30N 34°57' E 136°38'0 0.0
2018-Jan-11 08:00N 34°57' E 136°38'0 0.0
2018-Jan-11 07:30N 34°57' E 136°38'0 0.0
2018-Jan-11 07:00N 34°57' E 136°38'0 0.0
2018-Jan-11 06:24N 34°57' E 136°38'0 0.0
2018-Jan-11 06:00N 34°57' E 136°38'0 0.0
2018-Jan-11 05:30N 34°57' E 136°38'0 0.0
2018-Jan-11 05:00N 34°57' E 136°38'0 0.0
2018-Jan-11 04:30N 34°57' E 136°38'0 0.0
2018-Jan-11 04:00N 34°57' E 136°38'1 1.6
2018-Jan-11 03:30N 34°57' E 136°39'4 7.9
2018-Jan-11 03:00N 34°54' E 136°42'0 0.1
2018-Jan-11 02:30N 34°54' E 136°43'0 0.0
2018-Jan-11 01:57N 34°54' E 136°43'0 0.0
2018-Jan-11 01:30N 34°54' E 136°43'0 0.1
2018-Jan-11 01:00N 34°54' E 136°42'0 0.1
2018-Jan-11 00:30N 34°54' E 136°43'0 0.0
2018-Jan-11 00:00N 34°54' E 136°43'0 0.0
2018-Jan-10 23:30N 34°54' E 136°43'0 0.0
2018-Jan-10 22:57N 34°54' E 136°43'0 0.0
2018-Jan-10 22:27N 34°54' E 136°43'0 0.0
2018-Jan-10 22:00N 34°54' E 136°43'0 0.0
2018-Jan-10 21:30N 34°54' E 136°43'0 0.0
2018-Jan-10 20:57N 34°54' E 136°43'0 0.0
2018-Jan-10 20:24N 34°54' E 136°43'0 0.0
2018-Jan-10 20:00N 34°54' E 136°43'0 0.0
2018-Jan-10 19:30N 34°54' E 136°43'0 0.0
2018-Jan-10 19:00N 34°54' E 136°43'0 0.0
2018-Jan-10 18:27N 34°54' E 136°43'0 0.0
2018-Jan-10 17:57N 34°54' E 136°43'0 0.0
2018-Jan-10 17:27N 34°54' E 136°43'0 0.0
2018-Jan-10 17:00N 34°54' E 136°43'0 0.0
2018-Jan-10 16:27N 34°54' E 136°43'0 0.1
2018-Jan-10 16:00N 34°54' E 136°42'0 0.1
2018-Jan-10 15:27N 34°54' E 136°43'0 0.0
2018-Jan-10 14:57N 34°54' E 136°43'0 0.0
2018-Jan-10 14:30N 34°54' E 136°43'0 0.1
2018-Jan-10 13:57N 34°54' E 136°42'0 0.0
2018-Jan-10 13:30N 34°54' E 136°42'0 0.0
2018-Jan-10 13:00N 34°54' E 136°42'0 0.1
2018-Jan-10 12:30N 34°54' E 136°42'511.1
2018-Jan-10 12:01N 34°49' E 136°45'611.7
2018-Jan-10 11:30N 34°44' E 136°49'2010.4
2018-Jan-10 09:33N 34°33' E 137°10'111.7
2018-Jan-10 09:27N 34°33' E 137°11'5210.9
2018-Jan-10 04:42N 34°34' E 138°14'2 9.5
2018-Jan-10 04:29N 34°34' E 138°16'510.5
2018-Jan-10 04:00N 34°39' E 138°18'611.4
2018-Jan-10 03:30N 34°45' E 138°19'611.2
2018-Jan-10 02:59N 34°50' E 138°23'511.0
2018-Jan-10 02:30N 34°54' E 138°27'510.5
2018-Jan-10 02:00N 34°58' E 138°31'4 7.1
2018-Jan-10 01:30N 35°02' E 138°31'1 1.2
2018-Jan-10 01:00N 35°02' E 138°30'0 0.0
2018-Jan-10 00:30N 35°02' E 138°30'0 0.0
2018-Jan-10 00:00N 35°02' E 138°30'0 0.0
2018-Jan-09 23:30N 35°02' E 138°30'0 0.0
2018-Jan-09 23:00N 35°02' E 138°30'0 0.0
2018-Jan-09 22:30N 35°02' E 138°30'0 0.0
2018-Jan-09 22:00N 35°02' E 138°30'0 0.0
2018-Jan-09 21:30N 35°02' E 138°30'0 0.0
2018-Jan-09 21:00N 35°02' E 138°30'  

Dump ship's entire track history